Time;durP1;ratioP1;P1;durP2;ratioP2;P2;SDS_P1;SDS_P2;PMS_P1;PMS_P2;Temp;Humidity;BMP_temperature;BMP_pressure;BME280_temperature;BME280_humidity;BME280_pressure;Samples;Min_cycle;Max_cycle;Signal;HPM_P1;HPM_P2
2022/05/23 00:00:57;;;;;;;6.12;3.58;;;;;;;10.53;76.08;100084.70;2908483;80;21010;-84
2022/05/23 00:04:58;;;;;;;5.40;4.85;;;;;;;10.24;76.77;100084.00;2820392;83;20986;-83
2022/05/23 00:08:59;;;;;;;6.17;4.15;;;;;;;10.21;77.65;100080.23;2837614;82;21165;-84
2022/05/23 00:13:00;;;;;;;4.70;4.20;;;;;;;10.23;77.52;100076.48;2868004;81;21034;-84
2022/05/23 00:17:01;;;;;;;5.78;4.72;;;;;;;10.19;77.77;100084.84;2867416;81;21050;-84
2022/05/23 00:21:02;;;;;;;9.75;6.45;;;;;;;10.17;77.67;100082.33;2834342;82;21050;-84
2022/05/23 00:25:06;;;;;;;5.05;4.42;;;;;;;10.23;77.75;100083.64;2862523;82;21082;-84
2022/05/23 00:29:07;;;;;;;6.17;4.78;;;;;;;10.27;76.76;100075.25;2883421;82;21031;-84
2022/05/23 00:37:28;;;;;;;6.40;5.17;;;;;;;10.13;76.22;100064.45;2883967;81;21056;-84
2022/05/23 00:46:05;;;;;;;8.45;6.45;;;;;;;9.93;78.29;100070.59;2939508;80;21052;-84
2022/05/23 00:50:09;;;;;;;5.53;5.03;;;;;;;9.88;78.50;100066.15;2896384;80;21028;-84
2022/05/23 00:54:11;;;;;;;7.35;5.62;;;;;;;9.90;78.61;100066.86;2913248;79;21044;-84
2022/05/23 00:58:21;;;;;;;10.78;5.72;;;;;;;9.97;78.40;100068.03;2906997;80;21035;-84
2022/05/23 01:02:23;;;;;;;7.33;6.65;;;;;;;10.03;78.60;100064.03;2898130;80;21060;-82
2022/05/23 01:06:24;;;;;;;10.23;5.80;;;;;;;10.07;78.70;100061.47;2905756;80;21039;-85
2022/05/23 01:10:26;;;;;;;5.60;5.10;;;;;;;10.07;78.71;100057.01;2903117;80;21054;-84
2022/05/23 01:14:50;;;;;;;6.17;5.58;;;;;;;10.04;78.11;100058.59;2890370;81;21032;-82
2022/05/23 01:18:51;;;;;;;9.73;6.72;;;;;;;10.04;78.12;100051.95;2931967;79;21009;-83
2022/05/23 01:23:10;;;;;;;8.70;6.28;;;;;;;10.05;78.14;100050.98;2919929;80;21002;-84
2022/05/23 01:27:11;;;;;;;7.08;5.53;;;;;;;10.00;77.83;100047.37;2894271;80;21042;-84
2022/05/23 01:31:15;;;;;;;8.13;7.33;;;;;;;9.90;78.27;100052.25;2846380;81;21083;-84
2022/05/23 01:35:17;;;;;;;7.55;6.85;;;;;;;9.88;78.49;100047.05;2982796;79;21553;-85
2022/05/23 01:39:19;;;;;;;7.45;5.55;;;;;;;9.90;77.92;100039.80;2907448;79;21583;-84
2022/05/23 01:43:20;;;;;;;6.58;5.17;;;;;;;9.86;78.05;100031.25;2917032;79;21105;-84
2022/05/23 01:47:22;;;;;;;6.92;5.55;;;;;;;9.72;77.65;100031.55;2888699;81;21553;-83
2022/05/23 01:51:23;;;;;;;6.65;5.45;;;;;;;9.51;77.62;100032.34;2869088;82;21027;-84
2022/05/23 01:55:24;;;;;;;5.45;4.83;;;;;;;9.48;77.64;100024.63;2925264;79;21083;-83
2022/05/23 02:03:48;;;;;;;6.75;5.08;;;;;;;9.35;78.98;100011.98;2921136;79;21104;-83
2022/05/23 02:07:49;;;;;;;6.35;5.28;;;;;;;9.14;80.02;100008.78;2909256;80;21287;-84
2022/05/23 02:11:50;;;;;;;6.15;5.58;;;;;;;8.97;80.34;100007.48;2904320;79;21042;-84
2022/05/23 02:15:51;;;;;;;7.60;3.98;;;;;;;8.98;81.31;100012.65;2874606;82;21015;-84
2022/05/23 02:19:52;;;;;;;5.37;4.85;;;;;;;9.00;81.13;100006.73;2890701;82;21003;-85
2022/05/23 02:23:53;;;;;;;7.55;5.03;;;;;;;9.03;81.28;100006.13;2857325;82;21050;-85
2022/05/23 02:27:56;;;;;;;12.50;7.30;;;;;;;9.10;80.58;100006.02;2876776;81;21724;-84
2022/05/23 02:31:57;;;;;;;7.87;5.62;;;;;;;9.10;79.88;100008.17;2879913;81;21035;-86
2022/05/23 02:35:58;;;;;;;5.67;4.60;;;;;;;9.10;80.01;100000.70;2875205;82;21054;-84
2022/05/23 02:39:59;;;;;;;6.80;5.08;;;;;;;9.04;81.79;100007.81;2886741;81;21082;-85
2022/05/23 02:44:01;;;;;;;7.05;5.37;;;;;;;8.90;83.40;100002.28;2864033;82;21534;-85
2022/05/23 02:48:03;;;;;;;6.65;4.72;;;;;;;8.77;83.54;99997.12;2881029;81;21058;-85
2022/05/23 02:52:04;;;;;;;6.58;4.83;;;;;;;8.80;83.58;99991.56;2887845;81;21055;-82
2022/05/23 02:56:06;;;;;;;4.95;4.28;;;;;;;8.86;83.53;99988.45;2905044;81;20983;-85
2022/05/23 03:00:09;;;;;;;6.83;5.40;;;;;;;8.80;83.45;99986.26;2873110;81;21067;-82
2022/05/23 03:04:11;;;;;;;6.90;6.05;;;;;;;8.83;83.44;99991.31;2866902;81;21011;-84
2022/05/23 03:08:15;;;;;;;7.35;4.97;;;;;;;8.91;82.79;99988.91;2865698;82;21083;-82
2022/05/23 03:12:16;;;;;;;15.98;6.60;;;;;;;8.98;81.84;99998.06;2910882;79;21064;-83
2022/05/23 03:16:18;;;;;;;6.67;5.60;;;;;;;9.10;81.76;100000.70;2879381;81;21601;-83
2022/05/23 03:20:19;;;;;;;8.80;5.30;;;;;;;9.23;81.56;100000.55;2861300;83;21547;-83
2022/05/23 03:28:39;;;;;;;6.05;4.17;;;;;;;9.33;79.47;100000.16;2912971;79;21538;-83
2022/05/23 03:32:41;;;;;;;11.85;5.97;;;;;;;9.37;79.64;100001.62;2908868;79;21593;-84
2022/05/23 03:36:42;;;;;;;9.68;4.15;;;;;;;9.40;79.53;100011.98;2913574;81;21576;-83
2022/05/23 03:40:44;;;;;;;7.45;4.60;;;;;;;9.45;78.59;100012.94;2910827;80;22323;-83
2022/05/23 03:44:45;;;;;;;6.62;4.45;;;;;;;9.35;77.47;100027.91;2916030;80;21081;-83
2022/05/23 03:48:47;;;;;;;10.32;5.33;;;;;;;9.30;78.65;100018.98;2889853;80;21097;-83
2022/05/23 03:52:48;;;;;;;8.43;5.17;;;;;;;9.37;79.41;100020.20;2868102;81;21003;-83
2022/05/23 03:56:49;;;;;;;6.60;4.17;;;;;;;9.58;80.59;100023.39;2846123;82;21079;-83
2022/05/23 04:00:50;;;;;;;9.13;5.03;;;;;;;9.70;79.73;100013.57;2915439;80;21217;-83
2022/05/23 04:04:52;;;;;;;6.35;4.65;;;;;;;9.93;80.77;100009.48;2944588;80;21005;-82
2022/05/23 04:08:53;;;;;;;37.00;8.95;;;;;;;10.10;80.65;100019.53;2897684;79;21022;-82
2022/05/23 04:12:54;;;;;;;6.85;5.85;;;;;;;10.03;81.23;100025.02;2876319;81;21042;-81
2022/05/23 04:16:55;;;;;;;10.32;5.33;;;;;;;10.11;82.87;100025.68;2913427;80;21058;-83
2022/05/23 04:21:01;;;;;;;5.28;4.70;;;;;;;10.79;85.33;100029.26;2916725;80;21019;-83
2022/05/23 04:25:05;;;;;;;7.45;5.30;;;;;;;12.05;90.60;100039.46;2927212;80;21574;-84
2022/05/23 04:29:06;;;;;;;5.92;4.72;;;;;;;13.74;89.75;100039.96;2917885;80;21462;-84
2022/05/23 04:37:27;;;;;;;5.42;4.85;;;;;;;16.81;73.54;100024.39;2875339;80;21062;-83
2022/05/23 04:41:28;;;;;;;4.15;3.45;;;;;;;18.07;67.58;100028.89;2924135;79;21035;-82
2022/05/23 04:45:29;;;;;;;4.42;3.72;;;;;;;18.65;59.91;100022.12;2906882;80;21328;-83
2022/05/23 04:49:41;;;;;;;4.78;4.15;;;;;;;18.86;60.14;100023.23;2930383;80;21031;-83
2022/05/23 04:53:42;;;;;;;4.17;3.62;;;;;;;19.58;60.95;100014.03;2916204;80;20980;-83
2022/05/23 04:57:43;;;;;;;4.60;4.05;;;;;;;20.45;59.29;100020.20;2881252;80;21026;-83
2022/05/23 05:01:44;;;;;;;5.83;3.80;;;;;;;21.17;56.67;100010.51;2940029;80;21023;-84
2022/05/23 05:05:46;;;;;;;5.87;4.15;;;;;;;21.76;55.24;100016.84;2918589;80;21672;-83
2022/05/23 05:09:50;;;;;;;4.12;3.72;;;;;;;22.05;53.87;100016.11;2924333;80;21054;-83
2022/05/23 05:13:51;;;;;;;7.00;4.22;;;;;;;21.98;53.57;100012.05;2928188;80;21022;-83
2022/05/23 05:17:53;;;;;;;8.23;5.67;;;;;;;21.74;53.35;100021.09;2891330;81;21132;-83
2022/05/23 05:21:55;;;;;;;6.72;5.37;;;;;;;21.76;54.11;100008.72;2917178;81;21045;-83
2022/05/23 05:25:56;;;;;;;5.12;4.62;;;;;;;21.95;54.50;100012.46;2917063;80;21038;-83
2022/05/23 05:29:57;;;;;;;5.97;4.92;;;;;;;22.11;54.19;100013.94;2892419;81;21070;-83
2022/05/23 05:34:04;;;;;;;6.60;5.45;;;;;;;22.24;54.41;100006.33;2892970;81;20983;-83
2022/05/23 05:38:37;;;;;;;7.90;5.28;;;;;;;22.41;54.13;99991.80;2896711;81;21560;-84
2022/05/23 05:42:44;;;;;;;5.90;5.30;;;;;;;22.39;53.59;99992.54;2882030;81;21061;-83
2022/05/23 05:46:51;;;;;;;8.90;5.50;;;;;;;22.50;53.34;99982.95;2880354;81;21073;-83
2022/05/23 05:50:52;;;;;;;7.55;5.12;;;;;;;22.45;54.05;99978.14;2885585;81;21247;-83
2022/05/23 05:54:54;;;;;;;11.15;5.05;;;;;;;22.37;54.02;99988.67;2910588;81;21104;-83
2022/05/23 05:58:56;;;;;;;8.33;7.30;;;;;;;22.32;55.18;99981.70;2917238;81;21011;-83
2022/05/23 06:02:57;;;;;;;7.25;6.45;;;;;;;22.45;54.63;99974.61;2892976;81;21053;-83
2022/05/23 06:11:23;;;;;;;5.60;4.80;;;;;;;22.04;55.51;99980.59;2880820;81;21010;-83
2022/05/23 06:15:25;;;;;;;5.30;4.30;;;;;;;22.13;56.06;99973.09;2937408;80;21007;-83
2022/05/23 06:19:26;;;;;;;4.22;3.02;;;;;;;22.25;55.76;99982.25;2938913;79;21500;-84
2022/05/23 06:23:27;;;;;;;3.52;3.22;;;;;;;22.28;54.48;99975.56;2944683;79;20971;-84
2022/05/23 06:27:29;;;;;;;8.08;3.58;;;;;;;22.08;53.69;99975.06;2937865;80;21096;-83
2022/05/23 06:31:30;;;;;;;5.67;4.28;;;;;;;21.18;56.37;99971.61;2966495;79;21027;-83
2022/05/23 06:35:31;;;;;;;6.03;3.50;;;;;;;20.53;58.55;99969.23;2968046;79;21022;-83
2022/05/23 06:39:32;;;;;;;6.90;4.80;;;;;;;20.20;59.28;99976.10;2943367;79;21057;-84
2022/05/23 06:43:36;;;;;;;10.68;4.45;;;;;;;20.50;58.77;99965.59;2968453;78;21005;-83
2022/05/23 06:47:37;;;;;;;6.60;5.92;;;;;;;20.95;57.67;99960.62;2943937;79;20998;-83
2022/05/23 06:51:40;;;;;;;7.20;6.28;;;;;;;21.26;57.02;99951.16;2958779;79;21018;-83
2022/05/23 06:55:42;;;;;;;5.28;4.78;;;;;;;21.39;55.83;99945.44;2966113;79;21043;-83
2022/05/23 06:59:43;;;;;;;7.70;4.42;;;;;;;21.06;57.00;99939.45;2969037;79;21101;-83
2022/05/23 07:03:44;;;;;;;7.70;4.20;;;;;;;21.09;56.59;99938.50;2968028;79;21049;-83
2022/05/23 07:12:28;;;;;;;5.30;3.92;;;;;;;21.22;55.43;99929.62;2967250;79;21070;-83
2022/05/23 07:16:24;;;;;;;4.20;3.70;;;;;;;21.25;55.80;99929.20;2941998;80;20983;-83
2022/05/23 07:20:25;;;;;;;4.85;3.27;;;;;;;21.42;57.50;99921.20;2970299;78;21407;-83
2022/05/23 07:24:28;;;;;;;3.00;2.77;;;;;;;21.46;56.92;99924.66;2944901;79;21031;-83
2022/05/23 07:28:29;;;;;;;5.85;3.55;;;;;;;21.41;55.87;99920.36;2944149;80;20971;-83
2022/05/23 07:32:30;;;;;;;12.75;3.92;;;;;;;21.28;57.53;99914.42;2969506;79;22151;-83
2022/05/23 07:36:31;;;;;;;6.28;4.50;;;;;;;21.41;56.14;99923.06;2970970;78;20995;-83
2022/05/23 07:40:32;;;;;;;4.05;3.72;;;;;;;21.44;56.46;99924.53;2969692;79;21050;-83
2022/05/23 07:44:37;;;;;;;7.03;4.60;;;;;;;21.71;56.04;99920.00;2969092;80;20991;-83
2022/05/23 07:48:45;;;;;;;4.47;4.08;;;;;;;21.89;55.88;99913.94;2967038;80;21050;-84
2022/05/23 08:00:31;;;;;;;7.42;4.20;;;;;;;21.96;54.86;99905.31;2942945;80;21011;-84
2022/05/23 08:01:10;;;;;;;3.75;3.33;;;;;;;21.69;55.04;99903.14;2957350;79;20995;-83
2022/05/23 08:05:12;;;;;;;5.35;3.02;;;;;;;21.64;55.42;99912.39;2932349;80;20995;-83
2022/05/23 08:09:15;;;;;;;4.90;2.40;;;;;;;21.62;55.67;99903.64;2936772;79;21022;-83
2022/05/23 08:13:16;;;;;;;2.77;2.42;;;;;;;21.67;53.84;99897.11;2927675;79;21077;-83
2022/05/23 08:17:18;;;;;;;2.55;2.35;;;;;;;21.86;54.49;99897.31;2900541;81;21065;-83
2022/05/23 08:21:19;;;;;;;6.67;2.40;;;;;;;21.80;54.48;99892.20;2917667;81;21061;-83
2022/05/23 08:25:20;;;;;;;2.15;2.05;;;;;;;21.75;55.37;99899.59;2892514;81;21022;-83
2022/05/23 08:29:21;;;;;;;4.25;2.60;;;;;;;21.89;53.97;99893.64;2896195;81;21035;-83
2022/05/23 08:33:22;;;;;;;4.90;2.30;;;;;;;21.78;54.71;99892.94;2908823;81;20982;-83
2022/05/23 08:37:23;;;;;;;2.77;2.47;;;;;;;21.81;53.07;99888.45;2894359;80;21058;-83
2022/05/23 08:41:36;;;;;;;5.67;2.10;;;;;;;21.91;53.71;99889.38;2918544;81;21053;-83
2022/05/23 08:45:44;;;;;;;3.00;2.10;;;;;;;22.00;54.41;99879.16;2892926;81;21954;-83
2022/05/23 08:49:57;;;;;;;9.05;2.72;;;;;;;22.03;54.24;99878.73;2911223;81;21015;-83
2022/05/23 08:54:06;;;;;;;2.47;1.98;;;;;;;22.01;53.47;99865.93;2891014;81;20990;-84
2022/05/23 08:58:22;;;;;;;2.85;2.47;;;;;;;22.08;52.33;99869.45;2908511;81;20967;-83
2022/05/23 09:02:48;;;;;;;3.58;1.50;;;;;;;22.17;51.26;99856.00;2903130;81;21514;-83
2022/05/23 09:06:51;;;;;;;2.65;2.30;;;;;;;22.02;51.78;99852.20;2904760;81;21676;-83
2022/05/23 09:11:06;;;;;;;7.95;2.15;;;;;;;22.06;52.35;99857.48;2911715;81;21053;-84
2022/05/23 09:15:08;;;;;;;2.10;1.90;;;;;;;21.97;50.40;99834.37;2942930;80;21042;-84
2022/05/23 09:19:23;;;;;;;2.37;1.95;;;;;;;21.90;51.33;99841.69;2937361;80;21027;-83
2022/05/23 09:23:32;;;;;;;2.15;1.95;;;;;;;21.96;51.34;99838.12;2968183;79;21038;-83
2022/05/23 09:27:42;;;;;;;1.85;1.50;;;;;;;21.99;50.67;99838.23;2932717;79;21019;-83
2022/05/23 09:32:00;;;;;;;10.00;1.42;;;;;;;22.03;50.04;99837.61;2887194;79;21050;-83
2022/05/23 09:36:13;;;;;;;4.15;2.05;;;;;;;22.21;48.44;99822.02;2885379;81;21015;-83
2022/05/23 09:40:30;;;;;;;2.33;1.72;;;;;;;22.15;50.54;99818.81;2951915;79;21632;-83
2022/05/23 09:49:14;;;;;;;1.10;1.00;;;;;;;22.29;48.80;99815.53;2876497;81;21057;-83
2022/05/23 09:53:26;;;;;;;2.65;1.40;;;;;;;22.22;50.38;99812.03;2895858;80;21613;-84
2022/05/23 09:57:57;;;;;;;3.05;1.60;;;;;;;22.18;50.38;99806.70;2875307;81;21498;-84
2022/05/23 10:02:06;;;;;;;2.20;1.40;;;;;;;22.18;50.53;99806.70;2962960;79;21030;-84
2022/05/23 10:06:11;;;;;;;1.52;1.32;;;;;;;22.24;48.74;99801.27;2979003;79;21025;-83
2022/05/23 10:10:26;;;;;;;22.17;4.60;;;;;;;22.42;49.55;99793.50;2976414;79;21030;-83
2022/05/23 10:14:44;;;;;;;3.15;1.12;;;;;;;22.59;49.81;99782.46;2958311;79;21078;-83
2022/05/23 10:18:52;;;;;;;4.95;2.22;;;;;;;22.64;47.13;99779.95;2957663;80;21022;-84
2022/05/23 10:23:01;;;;;;;2.12;1.25;;;;;;;22.63;48.53;99790.48;2959153;80;21047;-83
2022/05/23 10:27:08;;;;;;;48.40;8.58;;;;;;;22.37;48.98;99788.17;2950981;80;21003;-84
2022/05/23 10:31:17;;;;;;;1.62;1.10;;;;;;;22.47;49.54;99782.33;2959324;80;21034;-83
2022/05/23 10:35:36;;;;;;;14.58;4.37;;;;;;;22.63;49.03;99776.94;2921486;80;21499;-83
2022/05/23 10:44:33;;;;;;;1.82;1.70;;;;;;;22.64;48.23;99768.27;2959784;80;21018;-84
2022/05/23 10:49:13;;;;;;;14.93;1.50;;;;;;;22.59;47.40;99756.72;2959301;80;21023;-83
2022/05/23 10:53:49;;;;;;;1.75;1.32;;;;;;;22.55;48.44;99747.37;2959554;80;21589;-84
2022/05/23 10:58:04;;;;;;;2.83;2.08;;;;;;;22.56;47.30;99742.79;2959284;79;20995;-83
2022/05/23 11:02:26;;;;;;;11.28;1.75;;;;;;;22.53;47.54;99744.89;2941020;80;21062;-83
2022/05/23 11:06:57;;;;;;;4.65;1.55;;;;;;;22.54;48.21;99741.64;2928445;80;21653;-84
2022/05/23 11:11:53;;;;;;;3.50;2.15;;;;;;;22.66;48.31;99729.57;2959787;80;21066;-84
2022/05/23 11:16:07;;;;;;;;;;;;;;;22.78;47.69;99731.05;2947821;78;21021;-83
2022/05/23 11:20:22;;;;;;;2.27;1.05;;;;;;;22.76;47.34;99727.73;2945691;79;20389;-84
2022/05/23 11:24:38;;;;;;;5.42;1.40;;;;;;;22.88;48.23;99730.05;2950823;79;20975;-83
2022/05/23 11:33:46;;;;;;;2.67;1.35;;;;;;;23.16;46.63;99715.73;2805980;84;21051;-83
2022/05/23 11:37:48;;;;;;;57.98;9.80;;;;;;;22.95;45.11;99719.14;2759816;85;21184;-84
2022/05/23 11:41:49;;;;;;;12.93;1.17;;;;;;;23.05;43.76;99716.75;2781148;85;21035;-83
2022/05/23 11:46:02;;;;;;;9.55;1.80;;;;;;;23.14;45.95;99706.98;2761113;85;21130;-83
2022/05/23 11:50:18;;;;;;;2.67;1.00;;;;;;;22.90;42.67;99698.11;2761678;86;21068;-83
2022/05/23 11:54:36;;;;;;;2.20;1.10;;;;;;;22.97;44.89;99689.37;2760751;84;21096;-81
2022/05/23 11:58:46;;;;;;;1.00;0.80;;;;;;;23.30;45.36;99678.47;2772422;84;21543;-81
2022/05/23 12:03:08;;;;;;;1.40;1.30;;;;;;;23.43;44.68;99657.98;2770916;84;21108;-81
2022/05/23 12:07:41;;;;;;;3.12;0.90;;;;;;;23.64;44.54;99659.93;2973690;79;21058;-80
2022/05/23 12:11:49;;;;;;;5.47;1.00;;;;;;;23.42;44.27;99648.70;2973018;78;21034;-82
2022/05/23 12:15:54;;;;;;;3.95;0.90;;;;;;;23.21;43.30;99645.34;2911697;79;21014;-83
2022/05/23 12:19:59;;;;;;;1.22;1.12;;;;;;;23.40;44.07;99639.45;2921107;80;21552;-83
2022/05/23 12:24:25;;;;;;;4.33;0.90;;;;;;;23.44;43.61;99642.00;2921948;81;20993;-83
2022/05/23 12:28:27;;;;;;;1.35;1.05;;;;;;;23.40;44.14;99627.23;2932286;80;21050;-83
2022/05/23 12:32:29;;;;;;;3.55;1.50;;;;;;;23.61;44.77;99614.24;2928615;80;20974;-82
2022/05/23 12:36:38;;;;;;;1.52;1.20;;;;;;;23.39;44.73;99599.80;2931712;80;21128;-83
2022/05/23 12:40:51;;;;;;;1.20;0.68;;;;;;;23.46;45.41;99592.91;2915234;80;21038;-83
2022/05/23 12:45:17;;;;;;;2.40;1.10;;;;;;;23.60;43.77;99584.09;2894900;81;21034;-83
2022/05/23 12:49:52;;;;;;;1.92;1.25;;;;;;;23.67;44.17;99586.98;2905432;81;21087;-83
2022/05/23 12:54:34;;;;;;;0.73;0.50;;;;;;;23.66;44.05;99586.69;2904636;80;21019;-83
2022/05/23 12:59:17;;;;;;;31.40;4.78;;;;;;;23.85;43.54;99583.11;2919765;80;21111;-83
2022/05/23 13:03:38;;;;;;;2.83;0.98;;;;;;;24.01;44.00;99577.03;2917553;81;21121;-83
2022/05/23 13:08:02;;;;;;;2.77;1.12;;;;;;;24.23;44.55;99573.80;2896880;80;21054;-83
2022/05/23 13:12:23;;;;;;;1.52;1.42;;;;;;;24.34;43.83;99564.81;2911226;81;21546;-83
2022/05/23 13:16:29;;;;;;;1.98;0.98;;;;;;;24.31;41.48;99558.49;2953625;80;20987;-83
2022/05/23 13:25:00;;;;;;;2.08;0.80;;;;;;;24.21;40.04;99544.13;2947078;79;21672;-82
2022/05/23 13:29:02;;;;;;;2.55;1.02;;;;;;;24.03;40.14;99542.86;2950538;79;21110;-83
2022/05/23 13:33:17;;;;;;;1.10;0.60;;;;;;;24.10;40.63;99532.19;2948465;79;21086;-86
2022/05/23 13:37:37;;;;;;;3.25;1.07;;;;;;;24.12;41.38;99531.97;2931862;79;21047;-83
2022/05/23 13:41:38;;;;;;;1.12;0.65;;;;;;;24.16;40.97;99530.94;2896740;79;21593;-82
2022/05/23 13:45:42;;;;;;;5.30;1.47;;;;;;;24.18;42.23;99528.30;2936079;80;21030;-82
2022/05/23 13:49:51;;;;;;;1.90;1.05;;;;;;;24.17;41.98;99513.58;2905600;81;21334;-82
2022/05/23 13:54:19;;;;;;;1.50;0.80;;;;;;;24.00;42.00;99506.63;2942240;79;20968;-82
2022/05/23 13:58:24;;;;;;;1.10;0.78;;;;;;;23.96;42.46;99515.77;2957312;79;21069;-83
2022/05/23 14:02:31;;;;;;;2.50;0.75;;;;;;;23.78;41.38;99513.45;2949950;80;21025;-83
2022/05/23 14:06:37;;;;;;;5.97;1.72;;;;;;;23.60;42.84;99502.66;2974454;78;21062;-82
2022/05/23 14:10:41;;;;;;;1.52;0.65;;;;;;;23.45;42.77;99501.70;2968620;79;21011;-83
2022/05/23 14:14:56;;;;;;;1.27;0.50;;;;;;;23.36;42.43;99502.03;2925789;80;21110;-83
2022/05/23 14:19:11;;;;;;;1.15;1.00;;;;;;;23.15;42.71;99493.81;2927566;80;21042;-82
2022/05/23 14:23:17;;;;;;;2.93;0.77;;;;;;;23.29;43.66;99489.09;2939867;80;21031;-81
2022/05/23 14:27:26;;;;;;;1.47;1.05;;;;;;;23.14;42.63;99489.99;2943519;80;21384;-81
2022/05/23 14:31:46;;;;;;;4.20;1.25;;;;;;;23.09;42.96;99494.22;2932152;80;20925;-82
2022/05/23 14:35:55;;;;;;;3.12;0.88;;;;;;;23.10;42.77;99488.25;2922547;80;21054;-82
2022/05/23 14:39:56;;;;;;;1.22;0.90;;;;;;;23.05;43.21;99481.34;2924572;79;21010;-83
2022/05/23 14:44:18;;;;;;;1.27;0.55;;;;;;;23.17;42.35;99475.42;2942480;80;21011;-83
2022/05/23 14:48:32;;;;;;;1.50;0.90;;;;;;;23.17;43.60;99481.39;2950021;80;21046;-82
2022/05/23 15:00:37;;;;;;;1.25;0.40;;;;;;;23.45;43.08;99467.27;2944351;80;21019;-82
2022/05/23 15:01:25;;;;;;;20.37;4.70;;;;;;;23.69;41.78;99465.96;2894288;80;21012;-83
2022/05/23 15:05:26;;;;;;;3.87;1.30;;;;;;;23.67;41.92;99462.66;2850466;82;21013;-83
2022/05/23 15:09:29;;;;;;;0.55;0.50;;;;;;;23.92;41.35;99464.34;2943791;80;21029;-83
2022/05/23 15:13:34;;;;;;;2.98;0.70;;;;;;;23.92;42.45;99457.55;2895135;81;21615;-81
2022/05/23 15:17:35;;;;;;;1.32;0.62;;;;;;;23.95;42.47;99459.80;2964490;76;21023;-82
2022/05/23 15:21:38;;;;;;;1.17;0.93;;;;;;;23.99;41.49;99452.02;2960169;78;21062;-82
2022/05/23 15:25:39;;;;;;;25.30;5.42;;;;;;;23.84;41.54;99451.13;2958058;78;21012;-83
2022/05/23 15:29:40;;;;;;;1.75;0.80;;;;;;;23.71;41.52;99431.81;2915921;78;21006;-83
2022/05/23 15:33:42;;;;;;;1.07;0.62;;;;;;;23.72;41.62;99424.77;2955673;78;20991;-84
2022/05/23 15:37:44;;;;;;;2.33;1.35;;;;;;;23.78;41.33;99422.50;2952623;78;21041;-82
2022/05/23 15:41:47;;;;;;;1.35;0.90;;;;;;;23.84;42.11;99413.11;2950487;80;20995;-82
2022/05/23 15:45:50;;;;;;;4.58;1.05;;;;;;;23.75;42.19;99417.51;2928234;79;21026;-82
2022/05/23 15:49:51;;;;;;;0.60;0.60;;;;;;;23.67;41.91;99417.87;2941830;80;21050;-82
2022/05/23 15:53:52;;;;;;;3.90;0.78;;;;;;;23.57;41.72;99405.38;2906638;79;21007;-82
2022/05/23 15:57:56;;;;;;;2.87;0.60;;;;;;;23.53;42.66;99414.55;2943858;79;21018;-82
2022/05/23 16:01:58;;;;;;;1.35;0.95;;;;;;;23.30;43.12;99417.50;2923087;80;21078;-82
2022/05/23 16:05:59;;;;;;;1.52;1.15;;;;;;;23.17;43.21;99413.58;2947208;79;21057;-82
2022/05/23 16:10:01;;;;;;;2.47;0.80;;;;;;;23.05;43.34;99417.61;2952516;80;21010;-82
2022/05/23 16:14:07;;;;;;;2.60;0.82;;;;;;;22.75;44.41;99410.27;2950979;78;21041;-82
2022/05/23 16:18:11;;;;;;;4.15;1.00;;;;;;;22.64;44.86;99405.92;2926156;80;21070;-82
2022/05/23 16:22:17;;;;;;;2.83;0.90;;;;;;;22.42;45.21;99396.57;2929968;79;21063;-82
2022/05/23 16:26:18;;;;;;;1.07;0.70;;;;;;;22.25;45.48;99389.03;2939851;80;21030;-83
2022/05/23 16:30:20;;;;;;;2.77;1.30;;;;;;;22.18;45.90;99386.91;2925742;80;21007;-82
2022/05/23 16:38:41;;;;;;;5.08;0.90;;;;;;;22.20;46.64;99376.67;2941232;80;21090;-83
2022/05/23 16:42:42;;;;;;;1.65;0.82;;;;;;;22.11;47.18;99370.21;2925868;75;21066;-83
2022/05/23 16:46:44;;;;;;;2.35;1.45;;;;;;;22.04;47.58;99370.81;2945348;80;21003;-82
2022/05/23 16:50:46;;;;;;;5.58;1.72;;;;;;;21.98;47.34;99367.63;2930827;80;21038;-83
2022/05/23 16:54:47;;;;;;;7.53;1.42;;;;;;;21.92;47.90;99380.72;2941728;80;21030;-84
2022/05/23 16:58:51;;;;;;;7.95;1.98;;;;;;;21.90;47.89;99376.05;2944919;80;21017;-83
2022/05/23 17:02:53;;;;;;;3.05;2.27;;;;;;;21.85;47.99;99356.41;2931299;80;20995;-84
2022/05/23 17:06:54;;;;;;;2.85;2.47;;;;;;;21.87;47.93;99349.44;2944956;80;21403;-83
2022/05/23 17:10:55;;;;;;;3.10;2.05;;;;;;;21.89;48.16;99339.20;2901433;80;20991;-83
2022/05/23 17:14:56;;;;;;;2.83;2.20;;;;;;;21.87;48.38;99344.83;2933581;80;20996;-83
2022/05/23 17:18:58;;;;;;;5.67;2.37;;;;;;;21.85;48.24;99347.48;2931034;80;21008;-82
2022/05/23 17:22:59;;;;;;;8.80;1.85;;;;;;;21.79;48.89;99351.90;2929910;80;21019;-83
2022/05/23 17:27:01;;;;;;;1.90;1.67;;;;;;;21.68;49.47;99354.81;2926414;80;21023;-83
2022/05/23 17:31:03;;;;;;;55.12;9.20;;;;;;;21.55;49.15;99348.96;2913732;80;21011;-83
2022/05/23 17:35:08;;;;;;;4.87;2.05;;;;;;;21.45;49.51;99342.70;2880556;82;21027;-82
2022/05/23 17:39:10;;;;;;;3.10;1.00;;;;;;;21.45;49.94;99331.03;2903585;80;21055;-83
2022/05/23 17:43:11;;;;;;;1.55;1.45;;;;;;;21.41;49.89;99325.23;2905448;80;21044;-83
2022/05/23 17:47:13;;;;;;;3.50;1.80;;;;;;;21.34;49.92;99317.19;2936772;80;21050;-82
2022/05/23 17:51:15;;;;;;;3.87;1.65;;;;;;;21.30;49.84;99312.44;2883959;81;21020;-83
2022/05/23 17:55:20;;;;;;;16.65;3.67;;;;;;;21.19;50.02;99316.14;2920836;80;21516;-83
2022/05/23 17:59:22;;;;;;;5.70;1.72;;;;;;;21.05;49.50;99323.53;2948569;79;20995;-83
2022/05/23 18:03:23;;;;;;;4.50;1.40;;;;;;;20.88;50.02;99323.23;2881816;82;21004;-85
2022/05/23 18:07:24;;;;;;;1.98;0.98;;;;;;;20.78;50.13;99321.48;2930532;80;21003;-84
2022/05/23 18:11:26;;;;;;;3.08;1.80;;;;;;;20.70;50.33;99323.91;2866589;81;21039;-84
2022/05/23 18:19:47;;;;;;;6.53;2.95;;;;;;;20.30;51.11;99319.53;2918908;79;21004;-83
2022/05/23 18:23:49;;;;;;;5.67;2.20;;;;;;;20.14;51.32;99310.55;2941105;79;22316;-82
2022/05/23 18:27:50;;;;;;;3.95;1.65;;;;;;;19.93;51.88;99311.94;2957169;78;21002;-83
2022/05/23 18:31:54;;;;;;;4.62;2.05;;;;;;;19.75;52.25;99315.28;2952255;80;21038;-83
2022/05/23 18:35:56;;;;;;;2.10;1.17;;;;;;;19.54;52.94;99315.83;2936993;80;21058;-82
2022/05/23 18:39:57;;;;;;;7.60;4.03;;;;;;;19.35;53.59;99316.13;2960577;80;21862;-83
2022/05/23 18:43:58;;;;;;;16.23;10.48;;;;;;;19.15;54.12;99318.83;2958342;79;21014;-83
2022/05/23 18:52:22;;;;;;;4.40;1.77;;;;;;;18.74;54.92;99310.33;2960628;79;21283;-81
2022/05/23 18:56:23;;;;;;;2.92;1.98;;;;;;;18.62;55.18;99301.48;2891639;81;21592;-82
2022/05/23 19:00:27;;;;;;;3.37;1.82;;;;;;;18.45;55.57;99306.91;2904327;80;21007;-82
2022/05/23 19:04:30;;;;;;;2.72;2.15;;;;;;;18.26;56.27;99317.39;2912811;80;21062;-82
2022/05/23 19:08:31;;;;;;;5.67;1.75;;;;;;;18.12;56.35;99316.00;2896074;80;21118;-84
2022/05/23 19:12:33;;;;;;;2.77;1.57;;;;;;;18.03;56.65;99317.18;2916760;80;22014;-82
2022/05/23 19:16:34;;;;;;;2.75;1.90;;;;;;;17.94;57.33;99315.66;2924183;80;21290;-81
2022/05/23 19:20:36;;;;;;;3.08;1.62;;;;;;;17.78;57.35;99305.53;2957196;80;21005;-83
2022/05/23 19:24:38;;;;;;;3.17;1.90;;;;;;;17.66;57.66;99300.37;2952994;80;20993;-82
2022/05/23 19:28:42;;;;;;;4.33;2.08;;;;;;;17.53;58.26;99301.11;2945587;80;21166;-82
2022/05/23 19:32:43;;;;;;;3.25;2.00;;;;;;;17.43;58.63;99306.01;2938120;80;20997;-83
2022/05/23 19:36:45;;;;;;;2.52;2.33;;;;;;;17.32;59.05;99312.75;2887400;80;21020;-82
2022/05/23 19:40:46;;;;;;;127.30;24.18;;;;;;;17.19;59.25;99306.22;2878260;80;21692;-83
2022/05/23 19:44:48;;;;;;;3.70;2.15;;;;;;;17.12;59.57;99300.78;2948052;80;20961;-82
2022/05/23 19:48:49;;;;;;;5.85;2.27;;;;;;;17.13;59.79;99297.60;2908435;80;21091;-83
2022/05/23 19:52:50;;;;;;;3.00;1.72;;;;;;;17.12;59.92;99283.84;2943552;80;21598;-83
2022/05/23 19:56:51;;;;;;;4.83;2.20;;;;;;;17.14;59.80;99287.17;2937881;80;21024;-83
2022/05/23 20:00:53;;;;;;;7.58;2.77;;;;;;;17.13;59.77;99274.23;2948379;80;21056;-83
2022/05/23 20:09:14;;;;;;;5.75;3.55;;;;;;;17.16;59.36;99263.63;2939388;80;21035;-81
2022/05/23 20:13:16;;;;;;;6.67;4.28;;;;;;;17.22;59.12;99258.80;2948054;80;21067;-82
2022/05/23 20:17:17;;;;;;;11.85;4.60;;;;;;;17.24;58.91;99262.13;2940721;80;21096;-82
2022/05/23 20:21:18;;;;;;;5.12;2.55;;;;;;;17.30;58.50;99258.36;2900455;80;21106;-81
2022/05/23 20:25:20;;;;;;;5.55;3.05;;;;;;;17.34;58.44;99258.28;2851652;81;20971;-80
2022/05/23 20:29:22;;;;;;;4.58;2.85;;;;;;;17.35;58.31;99254.04;2938099;80;21011;-82